Fairbanks International, AK

4:29 AM AKDT on October 02, 2014 (GMT -0800)
AKDOT Lathrop Street @ 21st Street | Change Station
CLOSE
Current Station
Personal Weather Station
Location: Fairbanks, AK
Elevation: 478 ft
Nearby Weather Stations

Elev 478 ft 64.83 °N, 147.74 °W | Updated 36 minutes ago

Mostly Cloudy
Mostly Cloudy
29 °F
Feels Like 29 °F
N
0
Wind Variable Wind from NE
Gusts 0.0 mph

Today
High -- | Low -- °F
--% Chance of Precip.
Yesterday
High -- | Low -- °F
Precip. -- in
8:04 AM 7:15 PM
First Quarter, 58% visible
Pressure 30.16 in
Visibility 10.0 miles
Clouds Scattered Clouds 10000 ft
Mostly Cloudy 18000 ft
Windchill 29 °F
Dew Point 28 °F
Humidity 98%
Rainfall -999.00 in
Snow Depth 77 in , 3 in , 1 in
UV 0 out of 12
Pollen Not available.
Air Quality Not available.
Flu Activity Not available.
METAR PAFA 021153Z 00000KT 10SM SCT100 BKN180 M01/M02 A3013 RMK AO2 SLP212 T10061022 10022 21006 58013 $

More Conditions Fewer Conditions

Pressure 30.16 in
Visibility 10.0 miles
Clouds Scattered Clouds 10000 ft
Mostly Cloudy 18000 ft
Windchill 29 °F
Dew Point 28 °F
Humidity 98%
Rainfall -999.00 in
Snow Depth 77 in , 3 in , 1 in
UV 0 out of 12
Pollen Not available.
Air Quality Not available.
Flu Activity Not available.
METAR PAFA 021153Z 00000KT 10SM SCT100 BKN180 M01/M02 A3013 RMK AO2 SLP212 T10061022 10022 21006 58013 $

More Conditions Fewer Conditions

10-Day Weather Forecast

Almanac

Astronomy

Oct. 02, 2014 Rise Set
Actual Time 8:04 AM AKDT 7:15 PM AKDT
Civil Twilight 7:15 AM AKDT 8:03 PM AKDT
Nautical Twilight 6:18 AM AKDT 9:01 PM AKDT
Astronomical Twilight 5:15 AM AKDT 10:02 PM AKDT
Moon 5:22 PM AKDT No Moon Set
Length of Visible Light 12h 47m
Length of Day
11h 10m
Tomorrow will be 6m 38s shorter.
First Quarter, 58% of the Moon is Illuminated
Today
First Quarter
Oct 8
Full
Oct 15
Last Quarter
Oct 23
New
Oct 30
First Quarter

Today's Extremes

State Highs State Lows

Community

WunderPhotos

Upload Photos

1,758,223 photos uploaded!

WunderBlogs® & News

Nearby

Snow Depth

Station Depth Elevation
Eagle Summit 77 in 3650 ft
Coldfoot 3 in 1040 ft
Monument Creek 1 in 1850 ft
Pargon Creek 1 in 300 ft
Upper Tsaina River 0 in 1750 ft

Earthquake Activity

City Distance Mag. Time & Date
No recent earthquake activity has been reported nearby.
Minimum magnitude displayed is 2.5.

Coastal Water Temperatures

Place Temperature
No Stations Reporting

Nearby Weather Stations